sensor_id;sensor_type;location;lat;lon;timestamp;pressure;altitude;pressure_sealevel;temperature
68952;BMP180;56000;51.146;17.112;2024-01-11T00:02:24;101582.40;;;-8.20
68952;BMP180;56000;51.146;17.112;2024-01-11T00:04:57;101580.80;;;-8.16
68952;BMP180;56000;51.146;17.112;2024-01-11T00:07:30;101569.00;;;-8.14
68952;BMP180;56000;51.146;17.112;2024-01-11T00:10:03;101567.60;;;-8.10
68952;BMP180;56000;51.146;17.112;2024-01-11T00:12:36;101567.40;;;-8.10
68952;BMP180;56000;51.146;17.112;2024-01-11T00:15:10;101563.00;;;-8.10
68952;BMP180;56000;51.146;17.112;2024-01-11T00:17:43;101554.20;;;-8.00
68952;BMP180;56000;51.146;17.112;2024-01-11T00:20:16;101544.00;;;-8.00
68952;BMP180;56000;51.146;17.112;2024-01-11T00:22:49;101541.00;;;-7.96
68952;BMP180;56000;51.146;17.112;2024-01-11T00:25:22;101536.60;;;-7.90
68952;BMP180;56000;51.146;17.112;2024-01-11T00:27:55;101530.00;;;-7.90
68952;BMP180;56000;51.146;17.112;2024-01-11T00:30:27;101536.80;;;-7.90
68952;BMP180;56000;51.146;17.112;2024-01-11T00:33:00;101538.20;;;-7.90
68952;BMP180;56000;51.146;17.112;2024-01-11T00:35:34;101538.00;;;-7.88
68952;BMP180;56000;51.146;17.112;2024-01-11T00:38:07;101531.00;;;-7.80
68952;BMP180;56000;51.146;17.112;2024-01-11T00:40:40;101529.60;;;-7.80
68952;BMP180;56000;51.146;17.112;2024-01-11T00:43:13;101532.00;;;-7.80
68952;BMP180;56000;51.146;17.112;2024-01-11T00:45:46;101530.00;;;-7.80
68952;BMP180;56000;51.146;17.112;2024-01-11T00:48:19;101531.40;;;-7.80
68952;BMP180;56000;51.146;17.112;2024-01-11T00:50:52;101532.20;;;-7.86
68952;BMP180;56000;51.146;17.112;2024-01-11T00:53:25;101531.20;;;-7.90
68952;BMP180;56000;51.146;17.112;2024-01-11T00:56:02;101531.20;;;-7.90
68952;BMP180;56000;51.146;17.112;2024-01-11T00:58:35;101531.60;;;-8.00
68952;BMP180;56000;51.146;17.112;2024-01-11T01:01:10;101537.00;;;-8.02
68952;BMP180;56000;51.146;17.112;2024-01-11T01:03:42;101526.00;;;-8.10
68952;BMP180;56000;51.146;17.112;2024-01-11T01:06:15;101524.00;;;-8.20
68952;BMP180;56000;51.146;17.112;2024-01-11T01:08:48;101517.60;;;-8.20
68952;BMP180;56000;51.146;17.112;2024-01-11T01:11:21;101504.60;;;-8.30
68952;BMP180;56000;51.146;17.112;2024-01-11T01:13:54;101509.20;;;-8.30
68952;BMP180;56000;51.146;17.112;2024-01-11T01:16:27;101509.40;;;-8.40
68952;BMP180;56000;51.146;17.112;2024-01-11T01:19:00;101517.60;;;-8.40
68952;BMP180;56000;51.146;17.112;2024-01-11T01:21:33;101511.80;;;-8.40
68952;BMP180;56000;51.146;17.112;2024-01-11T01:24:06;101505.40;;;-8.44
68952;BMP180;56000;51.146;17.112;2024-01-11T01:26:39;101506.80;;;-8.50
68952;BMP180;56000;51.146;17.112;2024-01-11T01:29:11;101508.40;;;-8.50
68952;BMP180;56000;51.146;17.112;2024-01-11T01:31:44;101502.00;;;-8.50
68952;BMP180;56000;51.146;17.112;2024-01-11T01:34:17;101495.00;;;-8.50
68952;BMP180;56000;51.146;17.112;2024-01-11T01:36:50;101487.00;;;-8.50
68952;BMP180;56000;51.146;17.112;2024-01-11T01:39:23;101480.40;;;-8.50
68952;BMP180;56000;51.146;17.112;2024-01-11T01:41:55;101484.20;;;-8.50
68952;BMP180;56000;51.146;17.112;2024-01-11T01:44:28;101490.40;;;-8.50
68952;BMP180;56000;51.146;17.112;2024-01-11T01:47:01;101493.80;;;-8.44
68952;BMP180;56000;51.146;17.112;2024-01-11T01:49:35;101491.40;;;-8.44
68952;BMP180;56000;51.146;17.112;2024-01-11T01:52:08;101500.20;;;-8.42
68952;BMP180;56000;51.146;17.112;2024-01-11T01:54:41;101517.60;;;-8.44
68952;BMP180;56000;51.146;17.112;2024-01-11T01:57:15;101528.00;;;-8.50
68952;BMP180;56000;51.146;17.112;2024-01-11T01:59:51;101523.80;;;-8.50
68952;BMP180;56000;51.146;17.112;2024-01-11T02:02:25;101524.80;;;-8.60
68952;BMP180;56000;51.146;17.112;2024-01-11T02:04:58;101532.40;;;-8.62
68952;BMP180;56000;51.146;17.112;2024-01-11T02:07:31;101531.60;;;-8.70
68952;BMP180;56000;51.146;17.112;2024-01-11T02:10:05;101525.80;;;-8.80
68952;BMP180;56000;51.146;17.112;2024-01-11T02:12:38;101513.00;;;-8.80
68952;BMP180;56000;51.146;17.112;2024-01-11T02:15:12;101510.80;;;-8.84
68952;BMP180;56000;51.146;17.112;2024-01-11T02:17:46;101515.40;;;-8.90
68952;BMP180;56000;51.146;17.112;2024-01-11T02:20:18;101517.80;;;-8.90
68952;BMP180;56000;51.146;17.112;2024-01-11T02:22:56;101509.20;;;-9.00
68952;BMP180;56000;51.146;17.112;2024-01-11T02:25:31;101514.80;;;-9.00
68952;BMP180;56000;51.146;17.112;2024-01-11T02:28:04;101507.00;;;-9.00
68952;BMP180;56000;51.146;17.112;2024-01-11T02:30:37;101506.00;;;-9.00
68952;BMP180;56000;51.146;17.112;2024-01-11T02:33:10;101504.00;;;-9.00
68952;BMP180;56000;51.146;17.112;2024-01-11T02:35:47;101501.20;;;-9.00
68952;BMP180;56000;51.146;17.112;2024-01-11T02:38:21;101496.80;;;-9.00
68952;BMP180;56000;51.146;17.112;2024-01-11T02:40:54;101484.60;;;-9.00
68952;BMP180;56000;51.146;17.112;2024-01-11T02:43:27;101471.80;;;-9.00
68952;BMP180;56000;51.146;17.112;2024-01-11T02:46:00;101455.40;;;-8.98
68952;BMP180;56000;51.146;17.112;2024-01-11T02:48:33;101452.00;;;-8.92
68952;BMP180;56000;51.146;17.112;2024-01-11T02:51:06;101443.40;;;-8.90
68952;BMP180;56000;51.146;17.112;2024-01-11T02:53:39;101437.60;;;-8.80
68952;BMP180;56000;51.146;17.112;2024-01-11T02:56:12;101436.20;;;-8.80
68952;BMP180;56000;51.146;17.112;2024-01-11T02:58:45;101443.20;;;-8.70
68952;BMP180;56000;51.146;17.112;2024-01-11T03:01:18;101446.00;;;-8.68
68952;BMP180;56000;51.146;17.112;2024-01-11T03:03:50;101439.20;;;-8.60
68952;BMP180;56000;51.146;17.112;2024-01-11T03:06:24;101429.40;;;-8.60
68952;BMP180;56000;51.146;17.112;2024-01-11T03:08:57;101429.00;;;-8.60
68952;BMP180;56000;51.146;17.112;2024-01-11T03:11:30;101418.20;;;-8.50
68952;BMP180;56000;51.146;17.112;2024-01-11T03:14:03;101431.00;;;-8.50
68952;BMP180;56000;51.146;17.112;2024-01-11T03:16:36;101423.00;;;-8.50
68952;BMP180;56000;51.146;17.112;2024-01-11T03:19:11;101420.60;;;-8.50
68952;BMP180;56000;51.146;17.112;2024-01-11T03:21:45;101423.20;;;-8.40
68952;BMP180;56000;51.146;17.112;2024-01-11T03:24:18;101441.20;;;-8.40
68952;BMP180;56000;51.146;17.112;2024-01-11T03:26:51;101437.60;;;-8.40
68952;BMP180;56000;51.146;17.112;2024-01-11T03:29:24;101447.60;;;-8.38
68952;BMP180;56000;51.146;17.112;2024-01-11T03:31:57;101447.40;;;-8.40
68952;BMP180;56000;51.146;17.112;2024-01-11T03:34:30;101450.00;;;-8.40
68952;BMP180;56000;51.146;17.112;2024-01-11T03:37:03;101435.60;;;-8.40
68952;BMP180;56000;51.146;17.112;2024-01-11T03:39:37;101430.80;;;-8.40
68952;BMP180;56000;51.146;17.112;2024-01-11T03:42:10;101435.40;;;-8.40
68952;BMP180;56000;51.146;17.112;2024-01-11T03:44:42;101436.00;;;-8.40
68952;BMP180;56000;51.146;17.112;2024-01-11T03:47:15;101448.80;;;-8.40
68952;BMP180;56000;51.146;17.112;2024-01-11T03:49:48;101457.40;;;-8.40
68952;BMP180;56000;51.146;17.112;2024-01-11T03:52:21;101462.00;;;-8.40
68952;BMP180;56000;51.146;17.112;2024-01-11T03:54:55;101460.20;;;-8.40
68952;BMP180;56000;51.146;17.112;2024-01-11T03:57:27;101464.60;;;-8.40
68952;BMP180;56000;51.146;17.112;2024-01-11T04:00:00;101459.40;;;-8.50
68952;BMP180;56000;51.146;17.112;2024-01-11T04:02:34;101460.40;;;-8.50
68952;BMP180;56000;51.146;17.112;2024-01-11T04:05:09;101456.00;;;-8.50
68952;BMP180;56000;51.146;17.112;2024-01-11T04:07:42;101444.80;;;-8.60
68952;BMP180;56000;51.146;17.112;2024-01-11T04:10:17;101439.80;;;-8.60
68952;BMP180;56000;51.146;17.112;2024-01-11T04:12:50;101441.20;;;-8.64
68952;BMP180;56000;51.146;17.112;2024-01-11T04:15:23;101430.80;;;-8.70
68952;BMP180;56000;51.146;17.112;2024-01-11T04:17:55;101434.20;;;-8.70
68952;BMP180;56000;51.146;17.112;2024-01-11T04:20:28;101440.80;;;-8.70
68952;BMP180;56000;51.146;17.112;2024-01-11T04:23:01;101449.60;;;-8.70
68952;BMP180;56000;51.146;17.112;2024-01-11T04:25:34;101433.80;;;-8.70
68952;BMP180;56000;51.146;17.112;2024-01-11T04:28:08;101431.20;;;-8.70
68952;BMP180;56000;51.146;17.112;2024-01-11T04:30:41;101430.80;;;-8.70
68952;BMP180;56000;51.146;17.112;2024-01-11T04:33:13;101435.80;;;-8.70
68952;BMP180;56000;51.146;17.112;2024-01-11T04:35:46;101429.20;;;-8.70
68952;BMP180;56000;51.146;17.112;2024-01-11T04:38:19;101435.60;;;-8.70
68952;BMP180;56000;51.146;17.112;2024-01-11T04:40:52;101427.40;;;-8.70
68952;BMP180;56000;51.146;17.112;2024-01-11T04:43:25;101420.00;;;-8.70
68952;BMP180;56000;51.146;17.112;2024-01-11T04:45:58;101414.80;;;-8.60
68952;BMP180;56000;51.146;17.112;2024-01-11T04:48:31;101409.00;;;-8.60
68952;BMP180;56000;51.146;17.112;2024-01-11T04:51:04;101411.00;;;-8.50
68952;BMP180;56000;51.146;17.112;2024-01-11T04:53:39;101417.80;;;-8.50
68952;BMP180;56000;51.146;17.112;2024-01-11T04:56:15;101413.60;;;-8.40
68952;BMP180;56000;51.146;17.112;2024-01-11T04:58:49;101404.60;;;-8.40
68952;BMP180;56000;51.146;17.112;2024-01-11T05:01:22;101386.60;;;-8.30
68952;BMP180;56000;51.146;17.112;2024-01-11T05:03:55;101378.00;;;-8.20
68952;BMP180;56000;51.146;17.112;2024-01-11T05:06:27;101364.60;;;-8.10
68952;BMP180;56000;51.146;17.112;2024-01-11T05:09:01;101347.40;;;-8.00
68952;BMP180;56000;51.146;17.112;2024-01-11T05:11:36;101342.80;;;-7.90
68952;BMP180;56000;51.146;17.112;2024-01-11T05:14:09;101341.80;;;-7.78
68952;BMP180;56000;51.146;17.112;2024-01-11T05:16:42;101352.40;;;-7.70
68952;BMP180;56000;51.146;17.112;2024-01-11T05:19:15;101355.00;;;-7.52
68952;BMP180;56000;51.146;17.112;2024-01-11T05:21:48;101362.60;;;-7.40
68952;BMP180;56000;51.146;17.112;2024-01-11T05:24:20;101359.40;;;-7.36
68952;BMP180;56000;51.146;17.112;2024-01-11T05:26:53;101342.60;;;-7.30
68952;BMP180;56000;51.146;17.112;2024-01-11T05:29:26;101332.40;;;-7.20
68952;BMP180;56000;51.146;17.112;2024-01-11T05:31:59;101328.80;;;-7.16
68952;BMP180;56000;51.146;17.112;2024-01-11T05:34:32;101320.40;;;-7.06
68952;BMP180;56000;51.146;17.112;2024-01-11T05:37:05;101315.20;;;-6.94
68952;BMP180;56000;51.146;17.112;2024-01-11T05:39:38;101310.20;;;-6.82
68952;BMP180;56000;51.146;17.112;2024-01-11T05:42:11;101297.40;;;-6.72
68952;BMP180;56000;51.146;17.112;2024-01-11T05:44:43;101304.00;;;-6.60
68952;BMP180;56000;51.146;17.112;2024-01-11T05:47:16;101306.60;;;-6.50
68952;BMP180;56000;51.146;17.112;2024-01-11T05:49:49;101321.40;;;-6.40
68952;BMP180;56000;51.146;17.112;2024-01-11T05:52:22;101339.20;;;-6.30
68952;BMP180;56000;51.146;17.112;2024-01-11T05:54:55;101331.80;;;-6.20
68952;BMP180;56000;51.146;17.112;2024-01-11T05:57:28;101335.80;;;-6.10
68952;BMP180;56000;51.146;17.112;2024-01-11T06:00:01;101327.00;;;-6.10
68952;BMP180;56000;51.146;17.112;2024-01-11T06:02:37;101315.40;;;-6.10
68952;BMP180;56000;51.146;17.112;2024-01-11T06:05:11;101316.20;;;-6.10
68952;BMP180;56000;51.146;17.112;2024-01-11T06:07:44;101314.20;;;-6.10
68952;BMP180;56000;51.146;17.112;2024-01-11T06:10:17;101300.20;;;-6.10
68952;BMP180;56000;51.146;17.112;2024-01-11T06:12:50;101291.00;;;-6.10
68952;BMP180;56000;51.146;17.112;2024-01-11T06:15:23;101288.00;;;-6.00
68952;BMP180;56000;51.146;17.112;2024-01-11T06:17:56;101268.40;;;-6.00
68952;BMP180;56000;51.146;17.112;2024-01-11T06:20:29;101261.00;;;-5.90
68952;BMP180;56000;51.146;17.112;2024-01-11T06:23:02;101253.60;;;-5.84
68952;BMP180;56000;51.146;17.112;2024-01-11T06:28:25;101267.60;;;-5.80
68952;BMP180;56000;51.146;17.112;2024-01-11T06:30:58;101283.00;;;-5.80
68952;BMP180;56000;51.146;17.112;2024-01-11T06:33:30;101292.60;;;-5.80
68952;BMP180;56000;51.146;17.112;2024-01-11T06:36:06;101296.80;;;-5.80
68952;BMP180;56000;51.146;17.112;2024-01-11T06:38:39;101296.60;;;-5.80
68952;BMP180;56000;51.146;17.112;2024-01-11T06:41:13;101300.40;;;-5.80
68952;BMP180;56000;51.146;17.112;2024-01-11T06:43:46;101302.80;;;-5.80
68952;BMP180;56000;51.146;17.112;2024-01-11T06:46:22;101304.60;;;-5.80
68952;BMP180;56000;51.146;17.112;2024-01-11T06:48:55;101298.40;;;-5.80
68952;BMP180;56000;51.146;17.112;2024-01-11T06:51:28;101292.60;;;-5.74
68952;BMP180;56000;51.146;17.112;2024-01-11T06:54:01;101282.80;;;-5.70
68952;BMP180;56000;51.146;17.112;2024-01-11T06:56:34;101273.80;;;-5.60
68952;BMP180;56000;51.146;17.112;2024-01-11T06:59:07;101267.80;;;-5.50
68952;BMP180;56000;51.146;17.112;2024-01-11T07:01:40;101268.80;;;-5.40
68952;BMP180;56000;51.146;17.112;2024-01-11T07:04:13;101271.20;;;-5.30
68952;BMP180;56000;51.146;17.112;2024-01-11T07:06:46;101253.60;;;-5.20
68952;BMP180;56000;51.146;17.112;2024-01-11T07:09:19;101257.60;;;-5.18
68952;BMP180;56000;51.146;17.112;2024-01-11T07:11:52;101255.00;;;-5.10
68952;BMP180;56000;51.146;17.112;2024-01-11T07:14:25;101245.60;;;-5.00
68952;BMP180;56000;51.146;17.112;2024-01-11T07:16:58;101253.00;;;-5.00
68952;BMP180;56000;51.146;17.112;2024-01-11T07:19:31;101238.60;;;-4.90
68952;BMP180;56000;51.146;17.112;2024-01-11T07:22:04;101240.00;;;-4.90
68952;BMP180;56000;51.146;17.112;2024-01-11T07:24:36;101231.80;;;-4.84
68952;BMP180;56000;51.146;17.112;2024-01-11T07:27:09;101213.00;;;-4.80
68952;BMP180;56000;51.146;17.112;2024-01-11T07:29:42;101209.20;;;-4.80
68952;BMP180;56000;51.146;17.112;2024-01-11T07:32:15;101204.00;;;-4.70
68952;BMP180;56000;51.146;17.112;2024-01-11T07:34:48;101196.00;;;-4.66
68952;BMP180;56000;51.146;17.112;2024-01-11T07:37:21;101186.00;;;-4.62
68952;BMP180;56000;51.146;17.112;2024-01-11T07:39:54;101182.80;;;-4.60
68952;BMP180;56000;51.146;17.112;2024-01-11T07:42:27;101187.80;;;-4.56
68952;BMP180;56000;51.146;17.112;2024-01-11T07:45:00;101203.80;;;-4.50
68952;BMP180;56000;51.146;17.112;2024-01-11T07:47:32;101199.20;;;-4.50
68952;BMP180;56000;51.146;17.112;2024-01-11T07:50:07;101187.60;;;-4.50
68952;BMP180;56000;51.146;17.112;2024-01-11T07:52:41;101200.60;;;-4.50
68952;BMP180;56000;51.146;17.112;2024-01-11T07:55:14;101206.40;;;-4.50
68952;BMP180;56000;51.146;17.112;2024-01-11T07:57:47;101206.40;;;-4.40
68952;BMP180;56000;51.146;17.112;2024-01-11T08:00:21;101204.80;;;-4.40
68952;BMP180;56000;51.146;17.112;2024-01-11T08:02:55;101201.80;;;-4.38
68952;BMP180;56000;51.146;17.112;2024-01-11T08:05:28;101198.80;;;-4.28
68952;BMP180;56000;51.146;17.112;2024-01-11T08:08:01;101194.00;;;-4.12
68952;BMP180;56000;51.146;17.112;2024-01-11T08:10:35;101191.80;;;-4.00
68952;BMP180;56000;51.146;17.112;2024-01-11T08:13:07;101184.80;;;-3.80
68952;BMP180;56000;51.146;17.112;2024-01-11T08:15:42;101178.00;;;-3.56
68952;BMP180;56000;51.146;17.112;2024-01-11T08:18:14;101168.20;;;-3.14
68952;BMP180;56000;51.146;17.112;2024-01-11T08:20:47;101180.00;;;-2.70
68952;BMP180;56000;51.146;17.112;2024-01-11T08:23:20;101186.80;;;-2.70
68952;BMP180;56000;51.146;17.112;2024-01-11T08:25:53;101195.20;;;-2.64
68952;BMP180;56000;51.146;17.112;2024-01-11T08:28:26;101192.60;;;-2.60
68952;BMP180;56000;51.146;17.112;2024-01-11T08:30:59;101194.60;;;-2.60
68952;BMP180;56000;51.146;17.112;2024-01-11T08:33:32;101180.00;;;-2.60
68952;BMP180;56000;51.146;17.112;2024-01-11T08:36:05;101180.40;;;-2.50
68952;BMP180;56000;51.146;17.112;2024-01-11T08:38:38;101188.80;;;-2.50
68952;BMP180;56000;51.146;17.112;2024-01-11T08:41:12;101187.40;;;-2.50
68952;BMP180;56000;51.146;17.112;2024-01-11T08:43:45;101181.40;;;-2.50
68952;BMP180;56000;51.146;17.112;2024-01-11T08:46:27;101182.60;;;-2.50
68952;BMP180;56000;51.146;17.112;2024-01-11T08:49:03;101183.40;;;-2.50
68952;BMP180;56000;51.146;17.112;2024-01-11T08:51:36;101190.80;;;-2.40
68952;BMP180;56000;51.146;17.112;2024-01-11T08:54:09;101189.40;;;-2.40
68952;BMP180;56000;51.146;17.112;2024-01-11T08:56:42;101189.00;;;-2.30
68952;BMP180;56000;51.146;17.112;2024-01-11T08:59:15;101192.80;;;-2.22
68952;BMP180;56000;51.146;17.112;2024-01-11T09:01:48;101193.00;;;-2.20
68952;BMP180;56000;51.146;17.112;2024-01-11T09:04:36;101203.40;;;-2.10
68952;BMP180;56000;51.146;17.112;2024-01-11T09:07:09;101205.20;;;-2.10
68952;BMP180;56000;51.146;17.112;2024-01-11T09:09:42;101205.40;;;-2.00
68952;BMP180;56000;51.146;17.112;2024-01-11T09:12:26;101195.20;;;-1.90
68952;BMP180;56000;51.146;17.112;2024-01-11T09:14:59;101206.00;;;-1.80
68952;BMP180;56000;51.146;17.112;2024-01-11T09:17:32;101214.20;;;-1.50
68952;BMP180;56000;51.146;17.112;2024-01-11T09:20:06;101209.40;;;-1.22
68952;BMP180;56000;51.146;17.112;2024-01-11T09:22:39;101203.40;;;-0.90
68952;BMP180;56000;51.146;17.112;2024-01-11T09:25:12;101203.00;;;-0.50
68952;BMP180;56000;51.146;17.112;2024-01-11T09:27:45;101209.80;;;-0.40
68952;BMP180;56000;51.146;17.112;2024-01-11T09:30:18;101208.60;;;-0.50
68952;BMP180;56000;51.146;17.112;2024-01-11T09:32:51;101215.80;;;-0.64
68952;BMP180;56000;51.146;17.112;2024-01-11T09:35:25;101202.60;;;-0.78
68952;BMP180;56000;51.146;17.112;2024-01-11T09:37:58;101195.40;;;-0.80
68952;BMP180;56000;51.146;17.112;2024-01-11T09:40:32;101201.20;;;-0.82
68952;BMP180;56000;51.146;17.112;2024-01-11T09:43:06;101196.00;;;-0.90
68952;BMP180;56000;51.146;17.112;2024-01-11T09:45:39;101188.40;;;-0.90
68952;BMP180;56000;51.146;17.112;2024-01-11T09:48:12;101175.20;;;-0.90
68952;BMP180;56000;51.146;17.112;2024-01-11T09:50:46;101174.60;;;-0.90
68952;BMP180;56000;51.146;17.112;2024-01-11T09:53:20;101171.80;;;-0.80
68952;BMP180;56000;51.146;17.112;2024-01-11T09:55:55;101188.60;;;-0.80
68952;BMP180;56000;51.146;17.112;2024-01-11T09:58:28;101186.60;;;-0.70
68952;BMP180;56000;51.146;17.112;2024-01-11T10:01:02;101176.80;;;-0.62
68952;BMP180;56000;51.146;17.112;2024-01-11T10:03:35;101165.40;;;-0.50
68952;BMP180;56000;51.146;17.112;2024-01-11T10:06:09;101157.00;;;-0.40
68952;BMP180;56000;51.146;17.112;2024-01-11T10:08:42;101155.40;;;-0.30
68952;BMP180;56000;51.146;17.112;2024-01-11T10:11:15;101152.40;;;-0.20
68952;BMP180;56000;51.146;17.112;2024-01-11T10:13:48;101144.80;;;-0.20
68952;BMP180;56000;51.146;17.112;2024-01-11T10:16:22;101141.20;;;-0.20
68952;BMP180;56000;51.146;17.112;2024-01-11T10:18:58;101138.80;;;-0.20
68952;BMP180;56000;51.146;17.112;2024-01-11T10:21:31;101143.80;;;-0.20
68952;BMP180;56000;51.146;17.112;2024-01-11T10:24:05;101130.00;;;-0.20
68952;BMP180;56000;51.146;17.112;2024-01-11T10:26:38;101121.40;;;-0.30
68952;BMP180;56000;51.146;17.112;2024-01-11T10:29:16;101121.60;;;-0.30
68952;BMP180;56000;51.146;17.112;2024-01-11T10:31:49;101121.40;;;-0.30
68952;BMP180;56000;51.146;17.112;2024-01-11T10:34:24;101115.60;;;-0.40
68952;BMP180;56000;51.146;17.112;2024-01-11T10:36:57;101121.60;;;-0.40
68952;BMP180;56000;51.146;17.112;2024-01-11T10:39:30;101125.80;;;-0.40
68952;BMP180;56000;51.146;17.112;2024-01-11T10:42:09;101119.20;;;-0.40
68952;BMP180;56000;51.146;17.112;2024-01-11T10:44:46;101117.20;;;-0.40
68952;BMP180;56000;51.146;17.112;2024-01-11T10:47:20;101120.60;;;-0.36
68952;BMP180;56000;51.146;17.112;2024-01-11T10:49:54;101130.00;;;-0.30
68952;BMP180;56000;51.146;17.112;2024-01-11T10:52:39;101129.40;;;-0.30
68952;BMP180;56000;51.146;17.112;2024-01-11T10:55:16;101122.60;;;-0.26
68952;BMP180;56000;51.146;17.112;2024-01-11T10:57:51;101127.60;;;-0.20
68952;BMP180;56000;51.146;17.112;2024-01-11T11:00:25;101123.80;;;-0.12
68952;BMP180;56000;51.146;17.112;2024-01-11T11:03:00;101125.60;;;-0.10
68952;BMP180;56000;51.146;17.112;2024-01-11T11:05:36;101131.40;;;0.00
68952;BMP180;56000;51.146;17.112;2024-01-11T11:08:11;101124.80;;;0.10
68952;BMP180;56000;51.146;17.112;2024-01-11T11:10:46;101131.00;;;0.12
68952;BMP180;56000;51.146;17.112;2024-01-11T11:13:20;101130.20;;;0.20
68952;BMP180;56000;51.146;17.112;2024-01-11T11:15:54;101125.80;;;0.20
68952;BMP180;56000;51.146;17.112;2024-01-11T11:18:33;101134.40;;;0.20
68952;BMP180;56000;51.146;17.112;2024-01-11T11:21:11;101133.20;;;0.30
68952;BMP180;56000;51.146;17.112;2024-01-11T11:23:44;101131.80;;;0.50
68952;BMP180;56000;51.146;17.112;2024-01-11T11:26:19;101126.80;;;0.70
68952;BMP180;56000;51.146;17.112;2024-01-11T11:28:52;101134.40;;;0.90
68952;BMP180;56000;51.146;17.112;2024-01-11T11:31:42;101126.80;;;1.10
68952;BMP180;56000;51.146;17.112;2024-01-11T11:34:15;101124.80;;;1.30
68952;BMP180;56000;51.146;17.112;2024-01-11T11:36:52;101125.00;;;1.38
68952;BMP180;56000;51.146;17.112;2024-01-11T11:39:28;101127.40;;;1.36
68952;BMP180;56000;51.146;17.112;2024-01-11T11:42:01;101126.80;;;1.20
68952;BMP180;56000;51.146;17.112;2024-01-11T11:44:36;101120.40;;;1.10
68952;BMP180;56000;51.146;17.112;2024-01-11T11:47:24;101111.40;;;1.02
68952;BMP180;56000;51.146;17.112;2024-01-11T11:50:16;101098.20;;;1.00
68952;BMP180;56000;51.146;17.112;2024-01-11T11:52:55;101084.80;;;0.90
68952;BMP180;56000;51.146;17.112;2024-01-11T11:55:29;101094.00;;;0.90
68952;BMP180;56000;51.146;17.112;2024-01-11T11:58:02;101092.20;;;0.90
68952;BMP180;56000;51.146;17.112;2024-01-11T12:00:35;101086.00;;;0.84
68952;BMP180;56000;51.146;17.112;2024-01-11T12:03:09;101081.80;;;0.80
68952;BMP180;56000;51.146;17.112;2024-01-11T12:05:42;101077.80;;;0.70
68952;BMP180;56000;51.146;17.112;2024-01-11T12:08:16;101087.60;;;0.64
68952;BMP180;56000;51.146;17.112;2024-01-11T12:10:49;101088.20;;;0.66
68952;BMP180;56000;51.146;17.112;2024-01-11T12:13:22;101085.80;;;0.70
68952;BMP180;56000;51.146;17.112;2024-01-11T12:15:56;101081.80;;;0.70
68952;BMP180;56000;51.146;17.112;2024-01-11T12:18:29;101081.40;;;0.80
68952;BMP180;56000;51.146;17.112;2024-01-11T12:21:03;101085.80;;;0.80
68952;BMP180;56000;51.146;17.112;2024-01-11T12:23:36;101081.40;;;0.90
68952;BMP180;56000;51.146;17.112;2024-01-11T12:26:10;101080.60;;;0.90
68952;BMP180;56000;51.146;17.112;2024-01-11T12:28:46;101083.60;;;1.00
68952;BMP180;56000;51.146;17.112;2024-01-11T12:31:19;101078.40;;;1.10
68952;BMP180;56000;51.146;17.112;2024-01-11T12:33:53;101080.80;;;1.10
68952;BMP180;56000;51.146;17.112;2024-01-11T12:36:27;101084.80;;;1.10
68952;BMP180;56000;51.146;17.112;2024-01-11T12:39:00;101079.20;;;1.10
68952;BMP180;56000;51.146;17.112;2024-01-11T12:41:35;101090.60;;;1.20
68952;BMP180;56000;51.146;17.112;2024-01-11T12:44:08;101092.80;;;1.20
68952;BMP180;56000;51.146;17.112;2024-01-11T12:46:42;101095.20;;;1.20
68952;BMP180;56000;51.146;17.112;2024-01-11T12:49:15;101097.20;;;1.10
68952;BMP180;56000;51.146;17.112;2024-01-11T12:51:48;101099.20;;;1.10
68952;BMP180;56000;51.146;17.112;2024-01-11T12:54:22;101104.40;;;1.00
68952;BMP180;56000;51.146;17.112;2024-01-11T12:56:55;101100.80;;;0.90
68952;BMP180;56000;51.146;17.112;2024-01-11T12:59:29;101098.40;;;0.74
68952;BMP180;56000;51.146;17.112;2024-01-11T13:02:02;101087.40;;;0.62
68952;BMP180;56000;51.146;17.112;2024-01-11T13:04:36;101084.40;;;0.56
68952;BMP180;56000;51.146;17.112;2024-01-11T13:07:10;101084.40;;;0.50
68952;BMP180;56000;51.146;17.112;2024-01-11T13:09:43;101077.60;;;0.50
68952;BMP180;56000;51.146;17.112;2024-01-11T13:12:16;101073.60;;;0.68
68952;BMP180;56000;51.146;17.112;2024-01-11T13:14:49;101075.00;;;0.84
68952;BMP180;56000;51.146;17.112;2024-01-11T13:17:24;101076.80;;;1.10
68952;BMP180;56000;51.146;17.112;2024-01-11T13:19:59;101075.00;;;1.30
68952;BMP180;56000;51.146;17.112;2024-01-11T13:22:33;101071.80;;;1.44
68952;BMP180;56000;51.146;17.112;2024-01-11T13:25:06;101066.20;;;1.40
68952;BMP180;56000;51.146;17.112;2024-01-11T13:27:40;101074.80;;;1.20
68952;BMP180;56000;51.146;17.112;2024-01-11T13:30:14;101078.20;;;1.00
68952;BMP180;56000;51.146;17.112;2024-01-11T13:32:48;101079.00;;;0.88
68952;BMP180;56000;51.146;17.112;2024-01-11T13:35:22;101072.20;;;0.80
68952;BMP180;56000;51.146;17.112;2024-01-11T13:37:56;101063.80;;;0.70
68952;BMP180;56000;51.146;17.112;2024-01-11T13:40:29;101060.20;;;0.60
68952;BMP180;56000;51.146;17.112;2024-01-11T13:43:02;101066.60;;;0.40
68952;BMP180;56000;51.146;17.112;2024-01-11T13:45:35;101072.20;;;0.30
68952;BMP180;56000;51.146;17.112;2024-01-11T13:48:09;101071.60;;;0.10
68952;BMP180;56000;51.146;17.112;2024-01-11T13:50:42;101075.20;;;0.00
68952;BMP180;56000;51.146;17.112;2024-01-11T13:53:15;101076.20;;;-0.10
68952;BMP180;56000;51.146;17.112;2024-01-11T13:55:47;101079.40;;;-0.20
68952;BMP180;56000;51.146;17.112;2024-01-11T13:58:20;101081.00;;;-0.30
68952;BMP180;56000;51.146;17.112;2024-01-11T14:00:53;101092.60;;;-0.32
68952;BMP180;56000;51.146;17.112;2024-01-11T14:03:28;101097.40;;;-0.40
68952;BMP180;56000;51.146;17.112;2024-01-11T14:06:01;101095.80;;;-0.50
68952;BMP180;56000;51.146;17.112;2024-01-11T14:08:35;101106.00;;;-0.50
68952;BMP180;56000;51.146;17.112;2024-01-11T14:11:08;101106.60;;;-0.60
68952;BMP180;56000;51.146;17.112;2024-01-11T14:13:41;101116.20;;;-0.70
68952;BMP180;56000;51.146;17.112;2024-01-11T14:16:14;101118.80;;;-0.80
68952;BMP180;56000;51.146;17.112;2024-01-11T14:18:48;101124.00;;;-0.90
68952;BMP180;56000;51.146;17.112;2024-01-11T14:21:21;101122.80;;;-0.90
68952;BMP180;56000;51.146;17.112;2024-01-11T14:23:56;101120.40;;;-1.00
68952;BMP180;56000;51.146;17.112;2024-01-11T14:26:30;101118.80;;;-1.00